Main page
METAR-TAF:

METAR-TAF

Airports :

Bowers Airport

Ellensburg, Washington, United States

latitude: 47-02-01N, longitude: 120-31-45W, elevation: 1758 ft

Current weather observation

The report was made 35 minutes ago, at 03:53 UTC
Wind 3 mph from the East
Temperature 52°F
Humidity 32%
Pressure 30.05 in. Hg
Visibility: 10 miles
Clear sky

METAR: KELN 230353Z AUTO 10003KT 10SM CLR 11/M05 A3005 RMK AO2 SLP181 T01061050

Time: 21:28 (04:28 UTC)


TAF: missing

Weather observations and forecasts of more than 4000 airports (METAR and TAF reports).

The available stations are represented by yellow and red dots on the map.

Hover mouse over dot to see the name of the station.

Then click to see weather observations and forecasts.

To change the map : click on the green buttons with a black cross to zoom in, on the green button with a dash to zoom out, or on the green arrows for adjacent maps.


METAR-TAF: